Time;durP1;ratioP1;P1;durP2;ratioP2;P2;SDS_P1;SDS_P2;PMS_P1;PMS_P2;Temp;Humidity;BMP_temperature;BMP_pressure;BME280_temperature;BME280_humidity;BME280_pressure;Samples;Min_cycle;Max_cycle;Signal;HPM_P1;HPM_P2
2023/12/08 00:01:02;;;;;;;88.88;29.88;;;;;;;5.76;61.93;101664.34;5015971;28;20033;-37
2023/12/08 00:03:27;;;;;;;80.82;29.13;;;;;;;5.78;61.81;101654.72;5009333;28;20049;-38
2023/12/08 00:05:53;;;;;;;87.45;30.77;;;;;;;5.85;61.50;101662.41;5011828;28;20084;-40
2023/12/08 00:08:18;;;;;;;83.95;28.85;;;;;;;5.86;61.38;101651.94;5013132;28;20026;-37
2023/12/08 00:10:44;;;;;;;71.65;27.70;;;;;;;5.91;61.42;101662.28;5009610;28;20034;-38
2023/12/08 00:13:09;;;;;;;95.15;30.05;;;;;;;5.89;61.17;101661.44;5003430;28;20072;-40
2023/12/08 00:15:34;;;;;;;84.95;29.55;;;;;;;5.90;61.28;101663.16;5010682;28;20679;-41
2023/12/08 00:18:00;;;;;;;83.70;30.70;;;;;;;5.92;61.18;101661.38;5003900;28;20038;-40
2023/12/08 00:20:25;;;;;;;80.50;27.50;;;;;;;5.91;60.95;101664.88;5019160;28;20034;-39
2023/12/08 00:22:51;;;;;;;81.75;28.33;;;;;;;5.89;61.06;101654.47;5012832;28;20035;-39
2023/12/08 00:25:17;;;;;;;94.55;30.63;;;;;;;5.92;61.13;101656.16;5014969;28;20033;-42
2023/12/08 00:27:42;;;;;;;103.10;30.27;;;;;;;5.92;60.99;101646.56;5006636;28;20033;-40
2023/12/08 00:30:08;;;;;;;86.40;28.20;;;;;;;5.97;61.07;101648.19;5011071;28;20034;-40
2023/12/08 00:32:33;;;;;;;77.25;28.40;;;;;;;5.96;61.06;101647.34;5001734;28;20041;-41
2023/12/08 00:34:59;;;;;;;81.95;27.95;;;;;;;5.90;61.10;101660.56;5004902;28;20029;-41
2023/12/08 00:37:25;;;;;;;81.78;28.10;;;;;;;5.94;61.16;101665.66;5004754;28;20053;-41
2023/12/08 00:39:50;;;;;;;84.88;27.65;;;;;;;5.93;61.19;101652.66;5001231;28;20030;-40
2023/12/08 00:42:16;;;;;;;68.90;24.17;;;;;;;5.96;60.84;101652.59;5003772;28;20041;-39
2023/12/08 00:44:41;;;;;;;84.15;28.90;;;;;;;5.96;60.89;101649.97;5004934;28;20057;-40
2023/12/08 00:47:06;;;;;;;84.88;27.45;;;;;;;6.00;60.55;101648.16;5005212;28;20511;-41
2023/12/08 00:49:32;;;;;;;55.88;17.60;;;;;;;6.01;61.00;101649.88;5007325;28;20026;-40
2023/12/08 00:51:57;;;;;;;76.28;25.92;;;;;;;6.02;60.81;101641.16;5004652;28;20029;-40
2023/12/08 00:54:23;;;;;;;72.32;24.80;;;;;;;6.03;60.53;101640.25;4998594;28;20053;-41
2023/12/08 00:56:48;;;;;;;78.10;26.40;;;;;;;6.02;60.78;101649.00;5001583;28;20053;-39
2023/12/08 00:59:14;;;;;;;77.85;25.95;;;;;;;5.99;61.33;101642.03;5008632;28;20505;-39
2023/12/08 01:01:39;;;;;;;76.60;25.48;;;;;;;5.97;60.98;101649.06;4999075;28;20034;-41
2023/12/08 01:04:05;;;;;;;73.25;25.83;;;;;;;5.99;60.99;101654.25;5003948;28;20021;-40
2023/12/08 01:06:30;;;;;;;68.85;24.85;;;;;;;5.95;61.43;101645.63;5010718;28;20119;-39
2023/12/08 01:08:56;;;;;;;65.00;23.13;;;;;;;5.97;61.28;101650.81;5006833;28;20037;-43
2023/12/08 01:11:21;;;;;;;69.70;25.67;;;;;;;5.91;61.30;101644.00;5012724;28;20485;-40
2023/12/08 01:13:47;;;;;;;72.22;25.45;;;;;;;5.91;61.28;101644.84;5006286;28;20142;-39
2023/12/08 01:16:12;;;;;;;67.47;22.45;;;;;;;5.94;61.28;101644.75;5007398;28;20038;-41
2023/12/08 01:18:38;;;;;;;66.60;22.73;;;;;;;5.97;61.05;101642.97;5007928;28;20049;-38
2023/12/08 01:21:03;;;;;;;57.10;21.33;;;;;;;5.97;60.86;101642.97;4999266;28;22731;-39
2023/12/08 01:23:29;;;;;;;62.60;23.25;;;;;;;5.99;60.94;101644.66;5008630;28;20481;-38
2023/12/08 01:25:54;;;;;;;60.17;22.10;;;;;;;5.97;61.23;101641.25;5007989;28;20040;-39
2023/12/08 01:28:20;;;;;;;57.92;21.08;;;;;;;5.98;61.15;101627.25;5004585;28;20042;-37
2023/12/08 01:30:45;;;;;;;58.63;24.05;;;;;;;5.99;60.85;101623.75;5005440;28;20032;-39
2023/12/08 01:33:11;;;;;;;61.95;20.75;;;;;;;5.98;61.12;101614.19;4996232;28;20038;-37
2023/12/08 01:35:36;;;;;;;54.95;19.80;;;;;;;6.00;60.94;101614.19;5004435;28;20450;-40
2023/12/08 01:38:02;;;;;;;52.70;21.27;;;;;;;6.02;60.83;101618.47;5006397;28;20026;-38
2023/12/08 01:40:28;;;;;;;63.47;22.27;;;;;;;5.96;61.43;101618.63;5007315;28;20025;-38
2023/12/08 01:42:53;;;;;;;52.50;21.15;;;;;;;6.00;60.82;101617.66;5001739;28;20631;-38
2023/12/08 01:45:19;;;;;;;55.20;21.33;;;;;;;6.01;60.99;101619.38;5004963;28;20026;-39
2023/12/08 01:47:46;;;;;;;48.22;19.30;;;;;;;6.02;60.84;101610.66;5004687;28;20084;-38
2023/12/08 01:50:13;;;;;;;59.13;20.27;;;;;;;6.01;60.93;101613.31;4997400;28;20088;-39
2023/12/08 01:52:40;;;;;;;59.80;21.80;;;;;;;6.04;60.67;101602.78;5003273;28;20033;-39
2023/12/08 01:55:06;;;;;;;57.78;21.52;;;;;;;6.03;60.71;101601.91;5004309;28;20112;-39
2023/12/08 01:57:32;;;;;;;55.53;21.42;;;;;;;6.03;61.08;101598.47;5004012;28;20041;-38
2023/12/08 01:59:58;;;;;;;61.75;20.92;;;;;;;6.02;60.73;101594.13;5006791;28;20493;-38
2023/12/08 02:02:24;;;;;;;49.20;20.80;;;;;;;5.94;61.46;101591.66;5004586;28;20096;-39
2023/12/08 02:04:53;;;;;;;57.10;23.08;;;;;;;5.91;61.40;101592.59;5007401;28;20032;-39
2023/12/08 02:07:20;;;;;;;51.90;20.02;;;;;;;5.93;61.49;101579.50;5012205;28;20050;-39
2023/12/08 02:09:47;;;;;;;36.40;13.73;;;;;;;5.93;61.53;101580.34;5008399;28;20066;-41
2023/12/08 02:12:12;;;;;;;55.17;21.20;;;;;;;5.93;61.55;101588.19;5006594;28;20041;-39
2023/12/08 02:14:38;;;;;;;58.67;22.33;;;;;;;5.97;61.04;101596.81;5005851;28;20026;-39
2023/12/08 02:17:18;;;;;;;58.83;22.25;;;;;;;6.05;61.29;101583.59;5008022;28;20037;-39
2023/12/08 02:19:45;;;;;;;59.85;22.02;;;;;;;6.03;61.26;101575.78;5005389;28;20040;-38
2023/12/08 02:22:10;;;;;;;62.42;20.42;;;;;;;6.04;61.07;101567.06;4999479;28;20060;-40
2023/12/08 02:24:36;;;;;;;56.92;23.08;;;;;;;6.05;61.07;101568.78;5004698;28;20403;-38
2023/12/08 02:27:01;;;;;;;52.42;20.55;;;;;;;6.02;61.06;101578.44;5003720;28;20034;-38
2023/12/08 02:29:27;;;;;;;68.95;21.58;;;;;;;6.04;61.05;101582.72;5007642;28;20034;-40
2023/12/08 02:32:01;;;;;;;67.18;23.58;;;;;;;6.08;60.68;101566.09;5000654;28;20034;-38
2023/12/08 02:34:29;;;;;;;71.47;24.65;;;;;;;6.05;61.40;101567.94;5006901;28;20117;-39
2023/12/08 02:36:58;;;;;;;64.57;22.73;;;;;;;6.06;60.96;101562.66;5007100;28;20084;-40
2023/12/08 02:39:26;;;;;;;61.42;21.30;;;;;;;6.07;61.12;101564.38;5013253;28;20049;-40
2023/12/08 02:41:51;;;;;;;63.63;21.15;;;;;;;6.04;61.21;101564.44;4999426;28;20025;-39
2023/12/08 02:44:17;;;;;;;67.15;24.17;;;;;;;6.02;61.25;101547.94;5005352;28;20034;-38
2023/12/08 02:46:43;;;;;;;66.70;21.27;;;;;;;6.05;60.84;101547.03;5006942;28;20030;-38
2023/12/08 02:49:08;;;;;;;63.83;22.70;;;;;;;5.92;61.55;101544.66;5004977;28;20033;-39
2023/12/08 02:51:34;;;;;;;43.15;14.85;;;;;;;5.97;61.14;101539.34;5003929;28;20041;-39
2023/12/08 02:53:59;;;;;;;60.53;23.10;;;;;;;6.01;60.89;101542.78;5000889;28;20038;-38
2023/12/08 02:56:24;;;;;;;63.45;21.95;;;;;;;6.00;60.95;101533.22;5005199;28;20033;-39
2023/12/08 02:58:50;;;;;;;58.20;22.05;;;;;;;6.02;61.14;101537.50;4995396;28;20022;-40
2023/12/08 03:01:16;;;;;;;58.05;23.23;;;;;;;6.02;60.80;101534.88;5005459;28;20026;-39
2023/12/08 03:03:41;;;;;;;62.00;23.63;;;;;;;6.05;61.04;101531.34;5000736;28;20050;-38
2023/12/08 03:06:07;;;;;;;70.03;22.45;;;;;;;6.03;60.87;101528.75;5005874;28;20147;-38
2023/12/08 03:08:33;;;;;;;59.90;20.45;;;;;;;6.04;60.91;101538.31;5004851;28;20056;-38
2023/12/08 03:10:58;;;;;;;71.88;23.42;;;;;;;6.04;61.17;101535.69;5002758;28;20030;-38
2023/12/08 03:13:24;;;;;;;68.68;25.08;;;;;;;6.07;60.96;101532.13;5007521;28;20040;-40
2023/12/08 03:15:49;;;;;;;63.13;22.50;;;;;;;6.06;61.05;101539.13;4999592;28;20034;-40
2023/12/08 03:18:15;;;;;;;60.75;21.92;;;;;;;6.04;60.73;101535.69;5004249;28;20034;-38
2023/12/08 03:20:40;;;;;;;57.13;19.77;;;;;;;6.06;60.75;101533.91;5006445;28;20036;-38
2023/12/08 03:23:06;;;;;;;65.50;22.15;;;;;;;6.06;60.77;101531.28;5006605;28;20121;-38
2023/12/08 03:25:31;;;;;;;52.85;22.58;;;;;;;6.05;60.80;101540.03;5009332;28;20034;-39
2023/12/08 03:27:57;;;;;;;50.78;21.73;;;;;;;6.04;60.62;101530.47;5001033;28;20038;-39
2023/12/08 03:30:22;;;;;;;59.72;23.20;;;;;;;5.98;61.11;101530.59;5004967;28;20690;-37
2023/12/08 03:32:48;;;;;;;60.08;23.15;;;;;;;6.02;61.08;101534.88;5004539;28;20037;-39
2023/12/08 03:35:13;;;;;;;62.47;24.02;;;;;;;5.98;61.12;101534.97;4998436;28;20037;-39
2023/12/08 03:37:39;;;;;;;69.13;25.30;;;;;;;5.91;61.52;101529.03;5010408;28;20037;-39
2023/12/08 03:40:05;;;;;;;55.00;22.60;;;;;;;5.94;61.55;101539.41;5010200;28;20060;-38
2023/12/08 03:42:36;;;;;;;79.65;28.80;;;;;;;5.96;61.52;101540.25;5008772;28;20038;-37
2023/12/08 03:45:03;;;;;;;70.63;26.75;;;;;;;5.90;62.14;101532.56;5008973;28;20041;-38
2023/12/08 03:47:28;;;;;;;58.92;23.85;;;;;;;5.95;61.26;101541.16;5012237;28;20030;-39
2023/12/08 03:49:53;;;;;;;65.32;24.45;;;;;;;5.91;61.98;101529.88;5007051;28;20044;-39
2023/12/08 03:52:19;;;;;;;51.45;20.00;;;;;;;5.98;61.60;101524.53;5001892;28;20041;-38
2023/12/08 03:54:44;;;;;;;66.05;23.23;;;;;;;5.96;61.74;101524.56;5010004;28;20037;-38
2023/12/08 03:57:10;;;;;;;58.88;22.42;;;;;;;5.98;61.18;101527.97;5011235;28;20640;-38
2023/12/08 03:59:35;;;;;;;65.90;22.90;;;;;;;5.94;61.28;101528.97;5010480;28;20025;-39
2023/12/08 04:02:01;;;;;;;36.00;13.82;;;;;;;5.98;61.56;101525.38;5009008;28;20030;-38
2023/12/08 04:04:26;;;;;;;66.55;24.05;;;;;;;6.00;61.20;101518.38;5010236;28;20045;-39
2023/12/08 04:06:51;;;;;;;63.95;25.08;;;;;;;5.89;61.98;101510.81;5011256;28;20030;-38
2023/12/08 04:09:17;;;;;;;71.68;22.70;;;;;;;5.95;61.67;101509.78;5004723;28;20037;-42
2023/12/08 04:11:42;;;;;;;82.80;27.85;;;;;;;5.88;61.93;101510.84;5001266;28;20030;-40
2023/12/08 04:14:08;;;;;;;74.28;24.55;;;;;;;5.87;61.54;101498.66;5008054;28;20045;-39
2023/12/08 04:16:33;;;;;;;70.40;25.02;;;;;;;5.90;61.66;101498.59;5004833;28;20025;-40
2023/12/08 04:18:59;;;;;;;74.22;24.23;;;;;;;5.92;61.85;101499.41;5000764;28;20084;-40
2023/12/08 04:21:24;;;;;;;67.15;23.58;;;;;;;5.93;61.26;101495.91;5008645;28;20124;-38
2023/12/08 04:23:49;;;;;;;68.57;23.20;;;;;;;5.88;61.54;101497.78;5003110;28;20484;-40
2023/12/08 04:26:20;;;;;;;91.95;26.85;;;;;;;5.86;61.83;101494.34;4997962;28;20030;-40
2023/12/08 04:28:46;;;;;;;76.55;26.33;;;;;;;5.90;61.54;101493.38;4999761;28;20036;-40
2023/12/08 04:31:11;;;;;;;66.93;25.67;;;;;;;5.90;61.69;101498.59;5002525;28;20033;-39
2023/12/08 04:33:37;;;;;;;61.17;23.52;;;;;;;5.96;61.40;101482.78;5002632;28;20037;-39
2023/12/08 04:36:03;;;;;;;63.72;25.13;;;;;;;6.00;61.26;101486.19;5004528;28;20103;-38
2023/12/08 04:38:28;;;;;;;64.30;24.02;;;;;;;6.02;60.98;101474.78;5003032;28;20026;-39
2023/12/08 04:40:53;;;;;;;61.63;24.92;;;;;;;6.01;61.42;101457.41;5000835;28;20835;-39
2023/12/08 04:43:19;;;;;;;57.22;21.10;;;;;;;6.03;61.09;101455.59;5002724;28;20022;-39
2023/12/08 04:45:44;;;;;;;66.95;25.20;;;;;;;6.05;61.32;101459.03;5009838;28;20040;-40
2023/12/08 04:48:10;;;;;;;95.82;34.75;;;;;;;5.99;61.06;101464.38;4998384;28;20121;-39
2023/12/08 04:50:35;;;;;;;66.07;24.45;;;;;;;5.91;61.15;101471.56;4997090;28;20057;-38
2023/12/08 04:53:01;;;;;;;62.65;26.77;;;;;;;5.98;61.29;101474.88;5008500;28;20089;-40
2023/12/08 04:55:26;;;;;;;61.60;25.58;;;;;;;5.98;61.10;101473.13;5010883;28;20026;-39
2023/12/08 04:57:52;;;;;;;58.65;22.13;;;;;;;6.00;61.25;101473.97;5008922;28;20412;-39
2023/12/08 05:00:17;;;;;;;43.05;15.90;;;;;;;6.03;61.12;101467.81;5005716;28;20029;-40
2023/12/08 05:02:43;;;;;;;66.53;24.25;;;;;;;5.93;61.35;101469.78;4998961;28;20034;-40
2023/12/08 05:05:08;;;;;;;58.00;23.67;;;;;;;6.01;61.30;101472.22;4999626;28;21105;-40
2023/12/08 05:07:34;;;;;;;66.90;23.95;;;;;;;6.02;61.20;101468.72;4996666;28;20132;-39
2023/12/08 05:10:00;;;;;;;63.78;26.15;;;;;;;5.98;61.27;101460.06;5002089;28;20040;-38
2023/12/08 05:12:25;;;;;;;68.00;27.92;;;;;;;5.87;61.52;101454.25;5001537;28;20030;-39
2023/12/08 05:14:51;;;;;;;69.65;24.92;;;;;;;5.84;61.54;101456.94;5004929;28;20025;-42
2023/12/08 05:17:17;;;;;;;72.10;26.27;;;;;;;5.91;61.47;101461.97;5005065;28;20034;-45
2023/12/08 05:19:42;;;;;;;73.15;26.40;;;;;;;5.90;61.62;101456.81;5007167;28;20044;-41
2023/12/08 05:22:08;;;;;;;49.20;17.85;;;;;;;5.88;61.35;101455.97;5004697;28;20034;-42
2023/12/08 05:24:33;;;;;;;75.30;28.17;;;;;;;5.78;61.33;101445.78;5004204;28;20516;-40
2023/12/08 05:26:58;;;;;;;81.82;28.80;;;;;;;5.76;61.80;101431.03;5000827;28;21315;-39
2023/12/08 05:29:24;;;;;;;80.03;29.48;;;;;;;5.67;61.80;101426.94;5000687;28;20040;-40
2023/12/08 05:31:52;;;;;;;87.25;28.92;;;;;;;5.57;61.93;101425.44;5002408;28;20396;-39
2023/12/08 05:34:18;;;;;;;77.32;28.20;;;;;;;5.66;62.07;101422.63;5001928;28;20125;-44
2023/12/08 05:36:44;;;;;;;100.95;32.90;;;;;;;5.58;62.22;101416.72;4999719;28;20033;-41
2023/12/08 05:39:10;;;;;;;86.63;30.92;;;;;;;5.55;62.10;101412.44;5012269;28;20381;-42
2023/12/08 05:41:37;;;;;;;80.50;29.33;;;;;;;5.51;62.32;101420.41;5012613;28;20042;-42
2023/12/08 05:44:02;;;;;;;93.07;31.40;;;;;;;5.38;62.71;101425.06;5009809;28;20440;-41
2023/12/08 05:46:28;;;;;;;97.25;30.50;;;;;;;5.46;62.52;101429.19;5012914;28;20030;-42
2023/12/08 05:48:53;;;;;;;79.13;32.22;;;;;;;5.37;62.70;101429.41;5008959;28;20492;-42
2023/12/08 05:51:19;;;;;;;80.10;30.77;;;;;;;5.29;62.71;101416.59;4995695;28;20034;-42
2023/12/08 05:53:44;;;;;;;83.95;30.25;;;;;;;5.18;63.56;101401.19;5008086;28;20034;-40
2023/12/08 05:56:11;;;;;;;82.35;30.73;;;;;;;5.27;63.21;101394.88;5007993;28;20045;-40
2023/12/08 05:58:36;;;;;;;91.53;30.38;;;;;;;5.14;63.34;101396.94;5007533;28;20030;-40
2023/12/08 06:01:02;;;;;;;85.53;30.23;;;;;;;5.17;63.65;101401.19;5006451;28;20044;-40
2023/12/08 06:03:28;;;;;;;105.05;33.97;;;;;;;5.15;63.36;101392.56;5007756;28;20061;-40
2023/12/08 06:05:53;;;;;;;104.53;33.35;;;;;;;4.88;63.76;101390.59;5007599;28;20033;-40
2023/12/08 06:08:19;;;;;;;97.78;33.05;;;;;;;4.91;64.08;101402.69;5008526;28;20069;-40
2023/12/08 06:10:44;;;;;;;88.72;30.30;;;;;;;5.03;63.66;101412.00;5005034;28;20726;-38
2023/12/08 06:13:10;;;;;;;93.88;31.25;;;;;;;5.07;63.64;101425.81;5004508;28;20042;-40
2023/12/08 06:15:35;;;;;;;83.53;33.17;;;;;;;5.05;63.35;101431.06;5002479;28;20131;-38
2023/12/08 06:18:00;;;;;;;99.32;33.22;;;;;;;5.13;63.40;101431.75;5002482;28;24670;-39
2023/12/08 06:20:26;;;;;;;94.88;29.40;;;;;;;4.98;63.50;101422.53;5015352;28;20511;-40
2023/12/08 06:22:51;;;;;;;89.75;29.55;;;;;;;5.02;63.43;101433.75;5004864;28;20029;-39
2023/12/08 06:25:17;;;;;;;91.90;30.40;;;;;;;5.22;62.95;101435.03;5004028;28;20513;-39
2023/12/08 06:27:43;;;;;;;105.00;33.10;;;;;;;5.12;62.99;101426.56;5002762;28;20510;-39
2023/12/08 06:30:08;;;;;;;84.65;29.80;;;;;;;5.11;63.05;101412.66;5008993;28;20411;-39
2023/12/08 06:32:34;;;;;;;77.93;28.30;;;;;;;5.03;63.55;101417.22;5000063;28;20053;-39
2023/12/08 06:34:59;;;;;;;75.10;28.10;;;;;;;5.19;62.72;101415.94;5005971;28;20022;-39
2023/12/08 06:37:25;;;;;;;78.63;27.85;;;;;;;5.19;62.91;101426.38;5001217;28;20042;-39
2023/12/08 06:39:50;;;;;;;71.18;25.95;;;;;;;5.20;62.37;101427.22;5006862;28;20087;-39
2023/12/08 06:42:16;;;;;;;83.57;27.58;;;;;;;5.28;62.57;101421.81;5006972;28;20145;-39
2023/12/08 06:44:41;;;;;;;75.30;26.88;;;;;;;5.10;62.29;101421.38;5004159;28;20084;-39
2023/12/08 06:47:08;;;;;;;76.13;27.05;;;;;;;5.05;62.87;101438.91;5005673;28;20100;-39
2023/12/08 06:49:33;;;;;;;83.43;27.60;;;;;;;5.04;62.87;101442.41;5007254;28;20030;-39
2023/12/08 06:51:59;;;;;;;92.10;26.45;;;;;;;5.15;62.54;101439.50;5003720;28;20026;-39
2023/12/08 06:54:24;;;;;;;74.43;25.67;;;;;;;5.11;62.88;101435.28;5002072;28;20026;-39
2023/12/08 06:56:50;;;;;;;56.13;21.45;;;;;;;5.00;62.81;101430.31;5006369;28;20034;-39
2023/12/08 06:59:15;;;;;;;82.47;27.27;;;;;;;5.03;62.60;101431.09;5007755;28;20041;-39
2023/12/08 07:01:41;;;;;;;84.50;26.35;;;;;;;5.13;62.40;101436.94;5004543;28;20131;-39
2023/12/08 07:04:07;;;;;;;78.85;26.25;;;;;;;5.09;62.55;101440.53;5004466;28;20038;-39
2023/12/08 07:06:35;;;;;;;63.30;25.05;;;;;;;4.85;62.65;101445.44;5009625;28;20087;-39
2023/12/08 07:09:01;;;;;;;75.05;25.60;;;;;;;4.86;62.79;101441.94;5011217;28;20029;-39
2023/12/08 07:11:27;;;;;;;66.85;25.13;;;;;;;4.78;62.84;101461.25;5006663;28;20029;-39
2023/12/08 07:13:52;;;;;;;63.08;22.38;;;;;;;4.88;62.70;101455.78;5011945;28;20124;-39
2023/12/08 07:16:17;;;;;;;68.97;25.00;;;;;;;4.87;62.67;101451.47;5011441;28;20060;-39
2023/12/08 07:18:43;;;;;;;51.20;18.52;;;;;;;4.77;62.66;101451.69;5006902;28;20034;-39
2023/12/08 07:21:08;;;;;;;72.07;23.95;;;;;;;4.81;62.89;101443.75;5002875;28;20394;-39
2023/12/08 07:23:34;;;;;;;64.68;26.13;;;;;;;4.69;63.03;101434.47;5006806;28;20038;-39
2023/12/08 07:26:00;;;;;;;69.78;23.88;;;;;;;4.69;63.28;101436.22;5013779;28;20523;-39
2023/12/08 07:28:26;;;;;;;70.82;24.17;;;;;;;4.90;62.90;101426.22;5003085;28;20034;-39
2023/12/08 07:30:51;;;;;;;64.85;22.73;;;;;;;4.91;62.58;101414.91;5006395;28;20420;-39
2023/12/08 07:33:17;;;;;;;73.30;24.15;;;;;;;4.85;62.51;101415.88;5000795;28;20053;-39
2023/12/08 07:35:42;;;;;;;76.63;27.13;;;;;;;4.87;62.67;101421.91;5004294;28;20029;-39
2023/12/08 07:38:08;;;;;;;66.18;22.27;;;;;;;4.79;62.79;101424.69;5008528;28;20515;-39
2023/12/08 07:40:33;;;;;;;69.63;25.20;;;;;;;4.43;62.97;101435.88;5009020;28;20041;-39
2023/12/08 07:42:59;;;;;;;72.38;24.45;;;;;;;4.76;62.57;101449.97;5008184;28;20026;-40
2023/12/08 07:45:25;;;;;;;59.55;21.90;;;;;;;4.86;62.75;101452.34;5008922;28;20509;-38
2023/12/08 07:47:50;;;;;;;71.13;28.02;;;;;;;4.81;62.60;101430.72;5012328;28;20429;-39
2023/12/08 07:50:15;;;;;;;68.80;26.45;;;;;;;4.93;62.84;101436.56;5013839;28;20405;-39
2023/12/08 07:52:44;;;;;;;45.95;15.95;;;;;;;4.91;62.55;101441.81;5013155;28;20030;-39
2023/12/08 07:55:09;;;;;;;58.10;22.42;;;;;;;4.85;62.59;101449.75;4983775;28;20037;-39
2023/12/08 07:57:35;;;;;;;69.43;23.92;;;;;;;4.53;62.81;101441.75;5008309;28;20037;-39
2023/12/08 08:00:03;;;;;;;58.42;23.70;;;;;;;4.61;62.77;101438.16;5011149;28;20036;-39
2023/12/08 08:02:29;;;;;;;61.05;22.75;;;;;;;4.77;62.89;101423.84;5009561;28;20168;-39
2023/12/08 08:04:54;;;;;;;67.03;23.35;;;;;;;4.90;62.52;101424.44;5007562;28;20678;-39
2023/12/08 08:07:20;;;;;;;62.20;22.27;;;;;;;4.82;62.63;101427.22;5004845;28;20054;-39
2023/12/08 08:09:45;;;;;;;61.13;24.15;;;;;;;4.98;62.54;101419.06;5008192;28;20029;-39
2023/12/08 08:12:11;;;;;;;57.00;23.13;;;;;;;4.89;62.26;101430.56;5002575;28;20044;-39
2023/12/08 08:14:38;;;;;;;56.08;22.13;;;;;;;4.81;62.21;101430.72;5011134;28;20034;-39
2023/12/08 08:17:03;;;;;;;59.15;24.13;;;;;;;4.79;62.31;101422.09;5002309;28;20872;-39
2023/12/08 08:19:29;;;;;;;62.42;25.33;;;;;;;4.57;62.63;101422.56;5005590;28;20489;-39
2023/12/08 08:21:54;;;;;;;64.57;25.15;;;;;;;4.80;62.72;101421.19;5003478;28;20369;-39
2023/12/08 08:24:20;;;;;;;55.50;22.15;;;;;;;4.95;62.46;101424.34;4996459;28;20444;-39
2023/12/08 08:26:46;;;;;;;46.25;19.08;;;;;;;4.85;62.32;101421.94;5010873;28;20038;-39
2023/12/08 08:29:12;;;;;;;42.05;16.60;;;;;;;4.81;61.94;101427.28;4999183;28;20069;-39
2023/12/08 08:31:38;;;;;;;48.72;16.92;;;;;;;4.81;61.94;101441.16;5006877;28;20133;-39
2023/12/08 08:34:04;;;;;;;45.55;17.67;;;;;;;4.74;61.59;101439.59;4999856;28;20059;-40
2023/12/08 08:36:30;;;;;;;36.95;16.25;;;;;;;4.85;61.85;101440.22;5003652;28;20038;-40
2023/12/08 08:38:56;;;;;;;37.00;15.25;;;;;;;4.92;62.13;101429.63;5007054;28;20029;-39
2023/12/08 08:41:22;;;;;;;41.10;16.13;;;;;;;4.82;61.54;101427.22;5006608;28;20036;-39
2023/12/08 08:43:48;;;;;;;38.33;15.32;;;;;;;4.89;61.55;101427.94;5004450;28;22013;-39
2023/12/08 08:46:14;;;;;;;41.10;16.58;;;;;;;4.97;61.47;101419.94;5001815;28;20030;-39
2023/12/08 08:48:39;;;;;;;36.00;15.50;;;;;;;5.13;61.34;101420.47;5010220;28;20594;-39
2023/12/08 08:51:05;;;;;;;30.25;13.65;;;;;;;5.19;61.47;101417.69;4994864;28;20030;-39
2023/12/08 08:53:30;;;;;;;38.92;16.08;;;;;;;5.24;61.39;101414.94;5005515;28;20036;-39
2023/12/08 08:55:56;;;;;;;32.80;15.20;;;;;;;5.30;61.00;101412.19;5001689;28;20092;-39
2023/12/08 08:58:21;;;;;;;41.85;15.55;;;;;;;5.22;60.84;101401.97;5002138;28;20033;-39
2023/12/08 09:00:47;;;;;;;38.50;15.70;;;;;;;5.29;61.10;101400.06;4995474;28;20057;-39
2023/12/08 09:03:12;;;;;;;40.08;16.33;;;;;;;5.27;61.04;101386.19;4995282;28;20109;-40
2023/12/08 09:05:41;;;;;;;35.83;15.57;;;;;;;5.32;61.13;101392.16;4991724;28;20052;-38
2023/12/08 09:08:08;;;;;;;45.78;19.35;;;;;;;5.45;61.23;101388.31;4991840;28;20042;-39
2023/12/08 09:10:34;;;;;;;52.75;21.92;;;;;;;5.40;61.27;101397.19;5000055;28;20051;-39
2023/12/08 09:12:59;;;;;;;44.95;17.25;;;;;;;5.36;61.11;101391.19;4999621;28;20106;-39
2023/12/08 09:15:25;;;;;;;47.58;18.15;;;;;;;5.28;61.03;101388.78;5001850;28;20038;-39
2023/12/08 09:17:51;;;;;;;37.88;16.27;;;;;;;5.41;60.67;101394.50;4997114;28;20026;-39
2023/12/08 09:20:17;;;;;;;44.80;16.55;;;;;;;5.31;60.93;101393.03;5006593;28;20029;-40
2023/12/08 09:22:42;;;;;;;41.03;15.38;;;;;;;5.29;61.37;101394.84;5004679;28;20018;-39
2023/12/08 09:25:09;;;;;;;43.50;17.85;;;;;;;5.19;60.95;101389.84;5005450;28;20034;-40
2023/12/08 09:27:35;;;;;;;45.00;15.55;;;;;;;5.12;61.74;101384.81;5000378;28;20131;-40
2023/12/08 09:30:00;;;;;;;49.53;20.17;;;;;;;5.14;61.01;101376.06;5001600;28;20512;-39
2023/12/08 09:32:27;;;;;;;35.15;14.77;;;;;;;4.96;61.60;101376.50;5003059;28;20041;-39
2023/12/08 09:34:52;;;;;;;33.70;13.90;;;;;;;4.99;61.21;101376.44;5001245;28;20069;-40
2023/12/08 09:37:17;;;;;;;39.50;14.02;;;;;;;4.92;61.42;101380.06;5001275;28;20034;-39
2023/12/08 09:39:43;;;;;;;44.00;14.68;;;;;;;4.75;61.64;101368.31;4992224;28;20038;-40
2023/12/08 09:42:20;;;;;;;55.33;21.42;;;;;;;5.00;61.36;101365.09;5002775;28;20022;-39
2023/12/08 09:44:48;;;;;;;37.65;16.02;;;;;;;4.96;61.33;101355.63;5004785;28;20025;-39
2023/12/08 09:47:16;;;;;;;34.58;13.73;;;;;;;5.11;61.24;101354.41;5000261;28;20061;-39
2023/12/08 09:49:49;;;;;;;37.85;13.20;;;;;;;5.18;61.16;101346.41;4997734;28;20034;-39
2023/12/08 09:52:15;;;;;;;42.20;17.08;;;;;;;5.22;61.12;101346.31;5004154;28;20099;-39
2023/12/08 09:54:42;;;;;;;61.10;22.80;;;;;;;5.08;61.36;101344.88;5001984;28;20084;-39
2023/12/08 09:57:13;;;;;;;62.88;22.50;;;;;;;5.27;60.96;101339.22;5001223;28;20034;-40
2023/12/08 09:59:41;;;;;;;40.25;15.38;;;;;;;5.24;60.96;101321.03;5004459;28;20040;-40
2023/12/08 10:02:09;;;;;;;37.08;15.15;;;;;;;5.08;60.79;101323.19;5002573;28;20092;-39
2023/12/08 10:04:35;;;;;;;30.13;12.55;;;;;;;4.99;60.78;101330.31;4999633;28;20105;-39
2023/12/08 10:07:05;;;;;;;28.98;12.30;;;;;;;5.16;60.17;101329.91;4998531;28;20109;-39
2023/12/08 10:09:35;;;;;;;39.50;13.82;;;;;;;5.33;60.45;101319.03;5003039;28;20064;-39
2023/12/08 10:12:00;;;;;;;42.47;12.98;;;;;;;5.38;60.36;101316.28;5002873;28;20072;-39
2023/12/08 10:14:26;;;;;;;33.97;14.88;;;;;;;5.35;60.73;101316.41;5002160;28;20647;-39
2023/12/08 10:16:52;;;;;;;57.17;23.27;;;;;;;5.52;60.26;101317.69;5006856;28;20026;-39
2023/12/08 10:19:20;;;;;;;26.48;9.93;;;;;;;5.63;60.57;101311.25;5008660;28;20042;-39
2023/12/08 10:21:59;;;;;;;41.47;15.60;;;;;;;5.71;60.40;101302.38;5006511;28;20276;-40
2023/12/08 10:24:27;;;;;;;42.35;17.42;;;;;;;5.61;59.75;101299.16;5011606;28;20651;-39
2023/12/08 10:26:53;;;;;;;48.45;18.23;;;;;;;5.63;59.76;101292.13;5009423;28;20026;-39
2023/12/08 10:29:18;;;;;;;43.20;16.17;;;;;;;5.79;60.03;101297.78;4996796;28;20026;-39
2023/12/08 10:31:45;;;;;;;45.42;17.30;;;;;;;5.63;59.96;101292.97;5008588;28;20403;-39
2023/12/08 10:34:13;;;;;;;43.20;16.83;;;;;;;5.67;60.08;101290.28;5006361;28;20157;-39
2023/12/08 10:36:39;;;;;;;43.05;16.67;;;;;;;5.76;59.96;101288.28;5005214;28;20509;-40
2023/12/08 10:39:04;;;;;;;38.80;15.30;;;;;;;5.55;60.21;101287.13;5001937;28;20033;-39
2023/12/08 10:41:30;;;;;;;43.88;16.73;;;;;;;5.47;60.11;101278.66;5008067;28;20539;-39
2023/12/08 10:43:55;;;;;;;42.35;18.15;;;;;;;5.50;59.69;101278.56;5005704;28;20038;-39
2023/12/08 10:46:22;;;;;;;42.80;15.55;;;;;;;5.57;60.01;101274.03;5006301;28;20088;-39
2023/12/08 10:48:48;;;;;;;40.70;17.00;;;;;;;5.53;59.71;101267.16;5011478;28;20030;-39
2023/12/08 10:51:15;;;;;;;41.80;15.80;;;;;;;5.63;60.06;101259.03;5013476;28;20026;-40
2023/12/08 10:53:41;;;;;;;42.60;18.00;;;;;;;5.74;59.70;101261.34;5005427;28;20025;-39
2023/12/08 10:56:10;;;;;;;40.63;15.73;;;;;;;5.42;59.49;101252.69;5008758;28;20045;-39
2023/12/08 10:58:39;;;;;;;46.13;17.13;;;;;;;5.63;59.47;101245.97;5018002;28;20295;-39
2023/12/08 11:01:12;;;;;;;43.97;16.15;;;;;;;5.67;59.83;101235.47;5013433;28;20033;-39
2023/12/08 11:03:40;;;;;;;40.50;16.15;;;;;;;5.68;59.56;101239.78;5008446;28;20030;-39
2023/12/08 11:06:09;;;;;;;45.30;16.50;;;;;;;5.71;59.38;101247.53;5015266;28;20123;-38
2023/12/08 11:08:38;;;;;;;39.47;16.10;;;;;;;5.75;59.72;101247.38;5006190;28;20021;-39
2023/12/08 11:11:06;;;;;;;42.95;17.10;;;;;;;5.87;59.81;101247.91;5010316;28;20030;-39